sensor_id;sensor_type;location;lat;lon;timestamp;pressure;altitude;pressure_sealevel;temperature;humidity
47104;BME280;32853;52.164;5.400;2023-12-20T00:00:51;101456.72;;;9.10;100.00
47104;BME280;32853;52.164;5.400;2023-12-20T00:03:16;101446.81;;;9.22;100.00
47104;BME280;32853;52.164;5.400;2023-12-20T00:05:42;101444.34;;;9.16;100.00
47104;BME280;32853;52.164;5.400;2023-12-20T00:08:07;101437.59;;;9.08;100.00
47104;BME280;32853;52.164;5.400;2023-12-20T00:10:32;101438.16;;;9.22;100.00
47104;BME280;32853;52.164;5.400;2023-12-20T00:12:57;101444.06;;;9.28;100.00
47104;BME280;32853;52.164;5.400;2023-12-20T00:15:28;101439.91;;;9.21;100.00
47104;BME280;32853;52.164;5.400;2023-12-20T00:18:00;101446.88;;;9.21;100.00
47104;BME280;32853;52.164;5.400;2023-12-20T00:20:28;101442.41;;;9.24;100.00
47104;BME280;32853;52.164;5.400;2023-12-20T00:23:00;101438.28;;;9.16;100.00
47104;BME280;32853;52.164;5.400;2023-12-20T00:25:26;101432.25;;;9.14;100.00
47104;BME280;32853;52.164;5.400;2023-12-20T00:27:53;101429.00;;;9.04;100.00
47104;BME280;32853;52.164;5.400;2023-12-20T00:30:28;101427.19;;;9.06;100.00
47104;BME280;32853;52.164;5.400;2023-12-20T00:32:53;101427.38;;;9.00;100.00
47104;BME280;32853;52.164;5.400;2023-12-20T00:35:18;101435.97;;;9.03;100.00
47104;BME280;32853;52.164;5.400;2023-12-20T00:37:44;101439.56;;;8.99;100.00
47104;BME280;32853;52.164;5.400;2023-12-20T00:40:12;101436.91;;;9.01;100.00
47104;BME280;32853;52.164;5.400;2023-12-20T00:42:37;101438.72;;;8.97;100.00
47104;BME280;32853;52.164;5.400;2023-12-20T00:45:03;101436.19;;;8.94;100.00
47104;BME280;32853;52.164;5.400;2023-12-20T00:47:30;101393.59;;;8.57;100.00
47104;BME280;32853;52.164;5.400;2023-12-20T00:49:55;101432.38;;;9.08;100.00
47104;BME280;32853;52.164;5.400;2023-12-20T00:52:20;101437.88;;;8.95;100.00
47104;BME280;32853;52.164;5.400;2023-12-20T00:54:47;101426.56;;;8.98;100.00
47104;BME280;32853;52.164;5.400;2023-12-20T00:57:12;101430.28;;;8.86;100.00
47104;BME280;32853;52.164;5.400;2023-12-20T01:02:11;101440.69;;;8.88;100.00
47104;BME280;32853;52.164;5.400;2023-12-20T01:04:40;101433.84;;;8.82;100.00
47104;BME280;32853;52.164;5.400;2023-12-20T01:07:10;101430.28;;;8.88;100.00
47104;BME280;32853;52.164;5.400;2023-12-20T01:09:41;101430.44;;;8.80;100.00
47104;BME280;32853;52.164;5.400;2023-12-20T01:12:06;101419.31;;;8.72;100.00
47104;BME280;32853;52.164;5.400;2023-12-20T01:14:31;101418.22;;;8.82;100.00
47104;BME280;32853;52.164;5.400;2023-12-20T01:16:56;101421.75;;;8.80;100.00
47104;BME280;32853;52.164;5.400;2023-12-20T01:19:22;101419.34;;;8.70;100.00
47104;BME280;32853;52.164;5.400;2023-12-20T01:21:48;101415.94;;;8.68;100.00
47104;BME280;32853;52.164;5.400;2023-12-20T01:24:14;101429.00;;;8.67;100.00
47104;BME280;32853;52.164;5.400;2023-12-20T01:26:39;101438.38;;;8.74;100.00
47104;BME280;32853;52.164;5.400;2023-12-20T01:29:04;101442.94;;;8.64;100.00
47104;BME280;32853;52.164;5.400;2023-12-20T01:31:32;101445.56;;;8.64;100.00
47104;BME280;32853;52.164;5.400;2023-12-20T01:33:58;101445.34;;;8.73;100.00
47104;BME280;32853;52.164;5.400;2023-12-20T01:36:23;101448.84;;;8.72;100.00
47104;BME280;32853;52.164;5.400;2023-12-20T01:38:48;101451.75;;;8.60;100.00
47104;BME280;32853;52.164;5.400;2023-12-20T01:41:14;101448.34;;;8.57;100.00
47104;BME280;32853;52.164;5.400;2023-12-20T01:43:40;101446.53;;;8.60;100.00
47104;BME280;32853;52.164;5.400;2023-12-20T01:48:50;101430.34;;;8.83;100.00
47104;BME280;32853;52.164;5.400;2023-12-20T01:51:16;101429.53;;;8.81;100.00
47104;BME280;32853;52.164;5.400;2023-12-20T01:53:49;101427.91;;;8.76;100.00
47104;BME280;32853;52.164;5.400;2023-12-20T01:56:18;101428.41;;;8.93;100.00
47104;BME280;32853;52.164;5.400;2023-12-20T01:58:44;101429.41;;;8.87;100.00
47104;BME280;32853;52.164;5.400;2023-12-20T02:01:09;101431.09;;;8.90;100.00
47104;BME280;32853;52.164;5.400;2023-12-20T02:03:35;101419.72;;;8.92;100.00
47104;BME280;32853;52.164;5.400;2023-12-20T02:06:01;101426.56;;;8.96;100.00
47104;BME280;32853;52.164;5.400;2023-12-20T02:08:27;101428.75;;;8.78;100.00
47104;BME280;32853;52.164;5.400;2023-12-20T02:10:52;101428.28;;;8.97;100.00
47104;BME280;32853;52.164;5.400;2023-12-20T02:13:17;101429.91;;;9.03;100.00
47104;BME280;32853;52.164;5.400;2023-12-20T02:15:42;101419.41;;;9.05;100.00
47104;BME280;32853;52.164;5.400;2023-12-20T02:18:08;101423.78;;;9.04;100.00
47104;BME280;32853;52.164;5.400;2023-12-20T02:20:34;101409.16;;;8.97;100.00
47104;BME280;32853;52.164;5.400;2023-12-20T02:22:59;101414.03;;;9.12;100.00
47104;BME280;32853;52.164;5.400;2023-12-20T02:25:24;101416.81;;;9.05;100.00
47104;BME280;32853;52.164;5.400;2023-12-20T02:27:49;101421.94;;;9.09;100.00
47104;BME280;32853;52.164;5.400;2023-12-20T02:30:14;101421.84;;;9.12;100.00
47104;BME280;32853;52.164;5.400;2023-12-20T02:32:43;101414.91;;;9.11;100.00
47104;BME280;32853;52.164;5.400;2023-12-20T02:35:08;101417.63;;;9.07;100.00
47104;BME280;32853;52.164;5.400;2023-12-20T02:37:33;101416.59;;;9.14;100.00
47104;BME280;32853;52.164;5.400;2023-12-20T02:39:59;101413.47;;;8.99;100.00
47104;BME280;32853;52.164;5.400;2023-12-20T02:42:27;101415.81;;;9.10;100.00
47104;BME280;32853;52.164;5.400;2023-12-20T02:44:53;101404.41;;;9.14;100.00
47104;BME280;32853;52.164;5.400;2023-12-20T02:47:31;101394.84;;;9.13;100.00
47104;BME280;32853;52.164;5.400;2023-12-20T02:49:57;101399.09;;;9.17;100.00
47104;BME280;32853;52.164;5.400;2023-12-20T02:52:25;101403.50;;;9.15;100.00
47104;BME280;32853;52.164;5.400;2023-12-20T02:54:50;101393.03;;;9.17;100.00
47104;BME280;32853;52.164;5.400;2023-12-20T02:57:18;101389.38;;;9.24;100.00
47104;BME280;32853;52.164;5.400;2023-12-20T02:59:44;101386.75;;;9.24;100.00
47104;BME280;32853;52.164;5.400;2023-12-20T03:02:09;101378.06;;;9.23;100.00
47104;BME280;32853;52.164;5.400;2023-12-20T03:04:39;101379.03;;;9.19;100.00
47104;BME280;32853;52.164;5.400;2023-12-20T03:07:05;101391.25;;;9.17;100.00
47104;BME280;32853;52.164;5.400;2023-12-20T03:09:33;101383.34;;;9.22;100.00
47104;BME280;32853;52.164;5.400;2023-12-20T03:12:11;101382.47;;;9.21;100.00
47104;BME280;32853;52.164;5.400;2023-12-20T03:14:36;101385.31;;;9.12;100.00
47104;BME280;32853;52.164;5.400;2023-12-20T03:17:01;101386.94;;;9.16;100.00
47104;BME280;32853;52.164;5.400;2023-12-20T03:19:27;101386.41;;;9.03;100.00
47104;BME280;32853;52.164;5.400;2023-12-20T03:21:52;101386.91;;;9.18;100.00
47104;BME280;32853;52.164;5.400;2023-12-20T03:24:21;101370.19;;;9.25;100.00
47104;BME280;32853;52.164;5.400;2023-12-20T03:27:01;101363.41;;;9.18;100.00
47104;BME280;32853;52.164;5.400;2023-12-20T03:29:26;101362.78;;;9.10;100.00
47104;BME280;32853;52.164;5.400;2023-12-20T03:31:51;101366.06;;;9.16;100.00
47104;BME280;32853;52.164;5.400;2023-12-20T03:34:25;101374.59;;;9.23;100.00
47104;BME280;32853;52.164;5.400;2023-12-20T03:36:51;101373.53;;;8.96;100.00
47104;BME280;32853;52.164;5.400;2023-12-20T03:39:28;101362.72;;;9.11;100.00
47104;BME280;32853;52.164;5.400;2023-12-20T03:41:54;101377.28;;;9.20;100.00
47104;BME280;32853;52.164;5.400;2023-12-20T03:44:19;101373.66;;;9.25;100.00
47104;BME280;32853;52.164;5.400;2023-12-20T03:46:45;101372.06;;;9.20;100.00
47104;BME280;32853;52.164;5.400;2023-12-20T03:49:10;101374.53;;;9.26;100.00
47104;BME280;32853;52.164;5.400;2023-12-20T03:51:36;101381.84;;;9.12;100.00
47104;BME280;32853;52.164;5.400;2023-12-20T03:54:01;101379.25;;;9.12;100.00
47104;BME280;32853;52.164;5.400;2023-12-20T04:01:54;101362.84;;;9.07;100.00
47104;BME280;32853;52.164;5.400;2023-12-20T04:04:19;101375.84;;;9.08;100.00
47104;BME280;32853;52.164;5.400;2023-12-20T04:06:50;101382.47;;;9.21;100.00
47104;BME280;32853;52.164;5.400;2023-12-20T04:09:16;101376.28;;;9.25;100.00
47104;BME280;32853;52.164;5.400;2023-12-20T04:11:41;101371.00;;;9.27;100.00
47104;BME280;32853;52.164;5.400;2023-12-20T04:14:09;101365.59;;;9.35;100.00
47104;BME280;32853;52.164;5.400;2023-12-20T04:16:35;101363.28;;;9.24;100.00
47104;BME280;32853;52.164;5.400;2023-12-20T04:19:00;101358.00;;;9.25;100.00
47104;BME280;32853;52.164;5.400;2023-12-20T04:21:26;101355.41;;;9.25;100.00
47104;BME280;32853;52.164;5.400;2023-12-20T04:23:58;101357.97;;;9.27;100.00
47104;BME280;32853;52.164;5.400;2023-12-20T04:26:23;101367.31;;;9.01;100.00
47104;BME280;32853;52.164;5.400;2023-12-20T04:28:49;101362.50;;;9.20;100.00
47104;BME280;32853;52.164;5.400;2023-12-20T04:34:22;101360.47;;;9.31;100.00
47104;BME280;32853;52.164;5.400;2023-12-20T04:36:48;101358.50;;;9.40;100.00
47104;BME280;32853;52.164;5.400;2023-12-20T04:39:13;101367.25;;;9.37;100.00
47104;BME280;32853;52.164;5.400;2023-12-20T04:41:40;101362.78;;;9.42;100.00
47104;BME280;32853;52.164;5.400;2023-12-20T04:44:05;101366.16;;;9.46;100.00
47104;BME280;32853;52.164;5.400;2023-12-20T04:46:31;101356.97;;;9.64;100.00
47104;BME280;32853;52.164;5.400;2023-12-20T04:48:56;101359.28;;;9.43;100.00
47104;BME280;32853;52.164;5.400;2023-12-20T04:51:21;101356.72;;;9.40;100.00
47104;BME280;32853;52.164;5.400;2023-12-20T04:53:47;101355.25;;;9.30;100.00
47104;BME280;32853;52.164;5.400;2023-12-20T04:56:15;101355.84;;;9.41;100.00
47104;BME280;32853;52.164;5.400;2023-12-20T04:58:41;101350.63;;;9.41;100.00
47104;BME280;32853;52.164;5.400;2023-12-20T05:01:07;101346.00;;;9.51;100.00
47104;BME280;32853;52.164;5.400;2023-12-20T05:03:33;101343.94;;;9.62;100.00
47104;BME280;32853;52.164;5.400;2023-12-20T05:05:58;101343.63;;;9.43;100.00
47104;BME280;32853;52.164;5.400;2023-12-20T05:08:23;101348.50;;;9.55;100.00
47104;BME280;32853;52.164;5.400;2023-12-20T05:10:53;101359.09;;;9.49;100.00
47104;BME280;32853;52.164;5.400;2023-12-20T05:13:19;101352.25;;;9.45;100.00
47104;BME280;32853;52.164;5.400;2023-12-20T05:15:44;101343.53;;;9.46;100.00
47104;BME280;32853;52.164;5.400;2023-12-20T05:18:18;101343.19;;;9.58;100.00
47104;BME280;32853;52.164;5.400;2023-12-20T05:20:43;101357.41;;;9.48;100.00
47104;BME280;32853;52.164;5.400;2023-12-20T05:23:08;101351.31;;;9.48;100.00
47104;BME280;32853;52.164;5.400;2023-12-20T05:25:45;101351.44;;;9.43;100.00
47104;BME280;32853;52.164;5.400;2023-12-20T05:28:10;101360.06;;;9.47;100.00
47104;BME280;32853;52.164;5.400;2023-12-20T05:30:44;101355.06;;;9.38;100.00
47104;BME280;32853;52.164;5.400;2023-12-20T05:35:38;101358.19;;;9.50;100.00
47104;BME280;32853;52.164;5.400;2023-12-20T05:38:03;101359.16;;;9.48;100.00
47104;BME280;32853;52.164;5.400;2023-12-20T05:40:29;101362.47;;;9.54;100.00
47104;BME280;32853;52.164;5.400;2023-12-20T05:42:56;101351.03;;;9.26;100.00
47104;BME280;32853;52.164;5.400;2023-12-20T05:45:21;101361.19;;;9.37;100.00
47104;BME280;32853;52.164;5.400;2023-12-20T05:47:47;101351.44;;;9.43;100.00
47104;BME280;32853;52.164;5.400;2023-12-20T05:50:12;101345.47;;;9.38;100.00
47104;BME280;32853;52.164;5.400;2023-12-20T05:52:40;101353.06;;;9.47;100.00
47104;BME280;32853;52.164;5.400;2023-12-20T05:55:06;101349.66;;;9.45;100.00
47104;BME280;32853;52.164;5.400;2023-12-20T05:57:31;101340.69;;;9.55;100.00
47104;BME280;32853;52.164;5.400;2023-12-20T05:59:59;101349.59;;;9.47;100.00
47104;BME280;32853;52.164;5.400;2023-12-20T06:02:25;101341.53;;;9.56;100.00
47104;BME280;32853;52.164;5.400;2023-12-20T06:07:35;101357.09;;;9.59;100.00
47104;BME280;32853;52.164;5.400;2023-12-20T06:10:04;101347.66;;;9.55;100.00
47104;BME280;32853;52.164;5.400;2023-12-20T06:12:32;101347.16;;;9.72;100.00
47104;BME280;32853;52.164;5.400;2023-12-20T06:14:58;101341.13;;;9.70;100.00
47104;BME280;32853;52.164;5.400;2023-12-20T06:17:23;101345.16;;;9.81;100.00
47104;BME280;32853;52.164;5.400;2023-12-20T06:19:49;101335.16;;;9.66;100.00
47104;BME280;32853;52.164;5.400;2023-12-20T06:22:14;101342.03;;;9.69;100.00
47104;BME280;32853;52.164;5.400;2023-12-20T06:24:40;101330.84;;;9.65;100.00
47104;BME280;32853;52.164;5.400;2023-12-20T06:27:11;101338.97;;;9.53;100.00
47104;BME280;32853;52.164;5.400;2023-12-20T06:29:46;101334.84;;;9.77;100.00
47104;BME280;32853;52.164;5.400;2023-12-20T06:32:11;101340.28;;;9.69;100.00
47104;BME280;32853;52.164;5.400;2023-12-20T06:34:55;101341.03;;;9.73;100.00
47104;BME280;32853;52.164;5.400;2023-12-20T06:37:32;101331.03;;;9.88;100.00
47104;BME280;32853;52.164;5.400;2023-12-20T06:39:57;101339.25;;;9.75;100.00
47104;BME280;32853;52.164;5.400;2023-12-20T06:42:23;101334.44;;;9.90;100.00
47104;BME280;32853;52.164;5.400;2023-12-20T06:44:48;101326.97;;;9.78;100.00
47104;BME280;32853;52.164;5.400;2023-12-20T06:47:13;101339.22;;;9.76;100.00
47104;BME280;32853;52.164;5.400;2023-12-20T06:52:11;101323.19;;;9.88;100.00
47104;BME280;32853;52.164;5.400;2023-12-20T06:54:37;101321.00;;;9.73;100.00
47104;BME280;32853;52.164;5.400;2023-12-20T06:57:02;101327.06;;;9.74;100.00
47104;BME280;32853;52.164;5.400;2023-12-20T06:59:29;101319.25;;;9.74;100.00
47104;BME280;32853;52.164;5.400;2023-12-20T07:01:54;101324.84;;;9.91;100.00
47104;BME280;32853;52.164;5.400;2023-12-20T07:04:19;101318.72;;;9.92;100.00
47104;BME280;32853;52.164;5.400;2023-12-20T07:06:46;101320.66;;;9.85;100.00
47104;BME280;32853;52.164;5.400;2023-12-20T07:09:12;101321.75;;;9.78;100.00
47104;BME280;32853;52.164;5.400;2023-12-20T07:11:39;101323.16;;;9.90;100.00
47104;BME280;32853;52.164;5.400;2023-12-20T07:14:07;101316.47;;;9.80;100.00
47104;BME280;32853;52.164;5.400;2023-12-20T07:16:32;101321.38;;;9.90;100.00
47104;BME280;32853;52.164;5.400;2023-12-20T07:18:57;101318.19;;;10.10;100.00
47104;BME280;32853;52.164;5.400;2023-12-20T07:21:25;101308.16;;;9.95;100.00
47104;BME280;32853;52.164;5.400;2023-12-20T07:23:50;101306.91;;;10.08;100.00
47104;BME280;32853;52.164;5.400;2023-12-20T07:26:22;101307.53;;;9.88;100.00
47104;BME280;32853;52.164;5.400;2023-12-20T07:28:48;101317.31;;;9.80;100.00
47104;BME280;32853;52.164;5.400;2023-12-20T07:31:14;101307.56;;;9.87;100.00
47104;BME280;32853;52.164;5.400;2023-12-20T07:33:40;101304.75;;;9.93;100.00
47104;BME280;32853;52.164;5.400;2023-12-20T07:36:07;101297.88;;;9.90;100.00
47104;BME280;32853;52.164;5.400;2023-12-20T07:38:50;101297.44;;;9.75;100.00
47104;BME280;32853;52.164;5.400;2023-12-20T07:41:15;101290.88;;;9.91;100.00
47104;BME280;32853;52.164;5.400;2023-12-20T07:43:45;101299.63;;;10.18;100.00
47104;BME280;32853;52.164;5.400;2023-12-20T07:46:10;101317.56;;;10.02;100.00
47104;BME280;32853;52.164;5.400;2023-12-20T07:48:35;101320.34;;;9.67;100.00
47104;BME280;32853;52.164;5.400;2023-12-20T07:51:01;101315.34;;;9.88;100.00
47104;BME280;32853;52.164;5.400;2023-12-20T07:53:31;101322.25;;;9.91;100.00
47104;BME280;32853;52.164;5.400;2023-12-20T07:55:57;101313.97;;;10.05;100.00
47104;BME280;32853;52.164;5.400;2023-12-20T07:58:22;101321.97;;;10.00;100.00
47104;BME280;32853;52.164;5.400;2023-12-20T08:00:48;101326.72;;;9.86;100.00
47104;BME280;32853;52.164;5.400;2023-12-20T08:03:14;101326.34;;;10.00;100.00
47104;BME280;32853;52.164;5.400;2023-12-20T08:05:46;101336.47;;;10.10;100.00
47104;BME280;32853;52.164;5.400;2023-12-20T08:08:11;101348.56;;;9.83;100.00
47104;BME280;32853;52.164;5.400;2023-12-20T08:10:38;101347.81;;;9.80;100.00
47104;BME280;32853;52.164;5.400;2023-12-20T08:13:04;101339.41;;;10.00;100.00
47104;BME280;32853;52.164;5.400;2023-12-20T08:15:31;101342.94;;;9.99;100.00
47104;BME280;32853;52.164;5.400;2023-12-20T08:17:58;101347.63;;;9.86;100.00
47104;BME280;32853;52.164;5.400;2023-12-20T08:20:33;101341.72;;;10.10;100.00
47104;BME280;32853;52.164;5.400;2023-12-20T08:22:59;101337.38;;;10.09;100.00
47104;BME280;32853;52.164;5.400;2023-12-20T08:25:35;101334.66;;;10.12;100.00
47104;BME280;32853;52.164;5.400;2023-12-20T08:28:02;101321.50;;;10.15;100.00
47104;BME280;32853;52.164;5.400;2023-12-20T08:30:31;101335.31;;;10.21;100.00
47104;BME280;32853;52.164;5.400;2023-12-20T08:33:01;101334.72;;;10.11;100.00
47104;BME280;32853;52.164;5.400;2023-12-20T08:35:26;101322.50;;;10.11;100.00
47104;BME280;32853;52.164;5.400;2023-12-20T08:37:58;101316.66;;;10.03;100.00
47104;BME280;32853;52.164;5.400;2023-12-20T08:40:23;101310.41;;;10.09;100.00
47104;BME280;32853;52.164;5.400;2023-12-20T08:42:52;101325.88;;;10.15;100.00
47104;BME280;32853;52.164;5.400;2023-12-20T08:48:04;101310.03;;;10.19;100.00
47104;BME280;32853;52.164;5.400;2023-12-20T08:50:29;101325.78;;;10.18;100.00
47104;BME280;32853;52.164;5.400;2023-12-20T08:52:54;101315.75;;;10.34;100.00
47104;BME280;32853;52.164;5.400;2023-12-20T08:55:20;101312.41;;;10.29;100.00
47104;BME280;32853;52.164;5.400;2023-12-20T08:57:49;101322.69;;;10.35;100.00
47104;BME280;32853;52.164;5.400;2023-12-20T09:00:15;101311.16;;;10.42;100.00
47104;BME280;32853;52.164;5.400;2023-12-20T09:02:41;101333.25;;;10.32;100.00
47104;BME280;32853;52.164;5.400;2023-12-20T09:05:14;101321.72;;;10.08;100.00
47104;BME280;32853;52.164;5.400;2023-12-20T09:07:40;101333.50;;;9.93;100.00
47104;BME280;32853;52.164;5.400;2023-12-20T09:10:05;101331.41;;;9.75;100.00
47104;BME280;32853;52.164;5.400;2023-12-20T09:12:30;101324.13;;;9.86;100.00
47104;BME280;32853;52.164;5.400;2023-12-20T09:17:27;101331.16;;;10.13;100.00
47104;BME280;32853;52.164;5.400;2023-12-20T09:20:04;101327.47;;;10.21;100.00
47104;BME280;32853;52.164;5.400;2023-12-20T09:22:41;101319.91;;;10.11;100.00
47104;BME280;32853;52.164;5.400;2023-12-20T09:25:07;101313.22;;;10.01;100.00
47104;BME280;32853;52.164;5.400;2023-12-20T09:27:32;101319.00;;;10.12;100.00
47104;BME280;32853;52.164;5.400;2023-12-20T09:29:57;101305.44;;;10.00;100.00
47104;BME280;32853;52.164;5.400;2023-12-20T09:32:22;101310.88;;;9.92;100.00
47104;BME280;32853;52.164;5.400;2023-12-20T09:34:54;101313.88;;;10.08;100.00
47104;BME280;32853;52.164;5.400;2023-12-20T09:37:19;101318.75;;;10.20;100.00
47104;BME280;32853;52.164;5.400;2023-12-20T09:39:45;101313.72;;;10.43;100.00
47104;BME280;32853;52.164;5.400;2023-12-20T09:42:11;101320.44;;;10.51;100.00
47104;BME280;32853;52.164;5.400;2023-12-20T09:44:52;101324.78;;;10.24;100.00
47104;BME280;32853;52.164;5.400;2023-12-20T09:47:27;101323.31;;;10.43;100.00
47104;BME280;32853;52.164;5.400;2023-12-20T09:52:22;101323.81;;;10.54;100.00
47104;BME280;32853;52.164;5.400;2023-12-20T09:54:48;101329.47;;;10.68;100.00
47104;BME280;32853;52.164;5.400;2023-12-20T09:57:14;101319.91;;;10.67;100.00
47104;BME280;32853;52.164;5.400;2023-12-20T09:59:41;101329.53;;;10.39;100.00
47104;BME280;32853;52.164;5.400;2023-12-20T10:02:06;101321.22;;;10.53;100.00
47104;BME280;32853;52.164;5.400;2023-12-20T10:04:34;101343.78;;;10.57;100.00
47104;BME280;32853;52.164;5.400;2023-12-20T10:07:01;101342.22;;;10.51;100.00
47104;BME280;32853;52.164;5.400;2023-12-20T10:09:28;101342.13;;;10.54;100.00
47104;BME280;32853;52.164;5.400;2023-12-20T10:11:59;101332.59;;;10.52;100.00
47104;BME280;32853;52.164;5.400;2023-12-20T10:14:24;101335.88;;;10.58;100.00
47104;BME280;32853;52.164;5.400;2023-12-20T10:16:49;101352.72;;;10.77;100.00
47104;BME280;32853;52.164;5.400;2023-12-20T10:19:19;101334.38;;;10.51;100.00
47104;BME280;32853;52.164;5.400;2023-12-20T10:21:44;101336.41;;;10.69;100.00
47104;BME280;32853;52.164;5.400;2023-12-20T10:24:16;101336.06;;;10.80;100.00
47104;BME280;32853;52.164;5.400;2023-12-20T10:26:41;101336.41;;;10.69;100.00
47104;BME280;32853;52.164;5.400;2023-12-20T10:29:07;101332.13;;;10.67;100.00
47104;BME280;32853;52.164;5.400;2023-12-20T10:31:33;101327.53;;;10.73;100.00
47104;BME280;32853;52.164;5.400;2023-12-20T10:33:59;101311.84;;;10.73;100.00
47104;BME280;32853;52.164;5.400;2023-12-20T10:36:25;101332.13;;;10.67;100.00
47104;BME280;32853;52.164;5.400;2023-12-20T10:38:52;101317.91;;;10.75;100.00
47104;BME280;32853;52.164;5.400;2023-12-20T10:41:18;101316.03;;;10.79;100.00
47104;BME280;32853;52.164;5.400;2023-12-20T10:43:46;101315.50;;;10.94;100.00
47104;BME280;32853;52.164;5.400;2023-12-20T10:46:13;101305.63;;;10.77;100.00
47104;BME280;32853;52.164;5.400;2023-12-20T10:48:38;101313.25;;;10.84;100.00
47104;BME280;32853;52.164;5.400;2023-12-20T10:51:04;101300.56;;;10.71;100.00
47104;BME280;32853;52.164;5.400;2023-12-20T10:53:30;101293.72;;;10.94;100.00
47104;BME280;32853;52.164;5.400;2023-12-20T10:55:56;101285.72;;;10.98;100.00
47104;BME280;32853;52.164;5.400;2023-12-20T10:58:24;101305.22;;;10.90;100.00
47104;BME280;32853;52.164;5.400;2023-12-20T11:00:57;101307.78;;;11.16;100.00
47104;BME280;32853;52.164;5.400;2023-12-20T11:03:24;101301.69;;;10.91;100.00
47104;BME280;32853;52.164;5.400;2023-12-20T11:06:07;101297.47;;;11.12;100.00
47104;BME280;32853;52.164;5.400;2023-12-20T11:11:21;101290.78;;;11.03;100.00
47104;BME280;32853;52.164;5.400;2023-12-20T11:16:38;101309.66;;;11.38;100.00
47104;BME280;32853;52.164;5.400;2023-12-20T11:19:06;101303.88;;;11.53;100.00
47104;BME280;32853;52.164;5.400;2023-12-20T11:21:41;101296.03;;;11.03;100.00
47104;BME280;32853;52.164;5.400;2023-12-20T11:24:06;101280.16;;;11.07;100.00
47104;BME280;32853;52.164;5.400;2023-12-20T11:26:33;101269.78;;;11.29;100.00
47104;BME280;32853;52.164;5.400;2023-12-20T11:31:43;101271.16;;;11.40;100.00
47104;BME280;32853;52.164;5.400;2023-12-20T11:34:18;101267.50;;;11.20;100.00
47104;BME280;32853;52.164;5.400;2023-12-20T11:36:43;101269.31;;;11.43;100.00
47104;BME280;32853;52.164;5.400;2023-12-20T11:39:17;101267.03;;;11.57;100.00
47104;BME280;32853;52.164;5.400;2023-12-20T11:41:48;101269.13;;;11.48;100.00
47104;BME280;32853;52.164;5.400;2023-12-20T11:44:22;101260.53;;;11.44;100.00
47104;BME280;32853;52.164;5.400;2023-12-20T11:46:49;101269.81;;;11.53;100.00
47104;BME280;32853;52.164;5.400;2023-12-20T11:49:15;101260.59;;;11.43;100.00
47104;BME280;32853;52.164;5.400;2023-12-20T11:51:40;101266.38;;;11.51;100.00
47104;BME280;32853;52.164;5.400;2023-12-20T11:54:14;101258.66;;;11.48;100.00
47104;BME280;32853;52.164;5.400;2023-12-20T11:56:39;101249.97;;;11.22;100.00
47104;BME280;32853;52.164;5.400;2023-12-20T11:59:05;101234.75;;;11.57;100.00
47104;BME280;32853;52.164;5.400;2023-12-20T12:01:32;101242.97;;;11.23;100.00
47104;BME280;32853;52.164;5.400;2023-12-20T12:04:04;101239.84;;;11.37;100.00
47104;BME280;32853;52.164;5.400;2023-12-20T12:06:34;101247.72;;;11.60;100.00
47104;BME280;32853;52.164;5.400;2023-12-20T12:08:59;101241.09;;;11.50;100.00
47104;BME280;32853;52.164;5.400;2023-12-20T12:11:29;101250.59;;;11.52;100.00
47104;BME280;32853;52.164;5.400;2023-12-20T12:13:55;101253.28;;;11.51;100.00
47104;BME280;32853;52.164;5.400;2023-12-20T12:16:25;101255.84;;;11.29;100.00
47104;BME280;32853;52.164;5.400;2023-12-20T12:18:57;101254.66;;;11.38;100.00
47104;BME280;32853;52.164;5.400;2023-12-20T12:21:24;101259.16;;;11.57;100.00
47104;BME280;32853;52.164;5.400;2023-12-20T12:26:51;101248.09;;;11.49;100.00
47104;BME280;32853;52.164;5.400;2023-12-20T12:29:16;101239.84;;;11.37;100.00
47104;BME280;32853;52.164;5.400;2023-12-20T12:31:42;101224.72;;;11.45;100.00
47104;BME280;32853;52.164;5.400;2023-12-20T12:34:08;101234.34;;;11.21;100.00
47104;BME280;32853;52.164;5.400;2023-12-20T12:36:35;101217.59;;;11.48;100.00
47104;BME280;32853;52.164;5.400;2023-12-20T12:39:07;101218.00;;;11.38;100.00
47104;BME280;32853;52.164;5.400;2023-12-20T12:41:34;101222.38;;;11.37;100.00
47104;BME280;32853;52.164;5.400;2023-12-20T12:43:59;101216.63;;;11.27;100.00
47104;BME280;32853;52.164;5.400;2023-12-20T12:46:25;101207.38;;;11.42;100.00
47104;BME280;32853;52.164;5.400;2023-12-20T12:48:55;101211.56;;;11.23;100.00
47104;BME280;32853;52.164;5.400;2023-12-20T12:51:21;101208.03;;;11.24;100.00
47104;BME280;32853;52.164;5.400;2023-12-20T12:53:50;101205.63;;;11.18;100.00
47104;BME280;32853;52.164;5.400;2023-12-20T12:56:15;101206.03;;;11.30;100.00
47104;BME280;32853;52.164;5.400;2023-12-20T12:58:41;101211.91;;;11.37;100.00
47104;BME280;32853;52.164;5.400;2023-12-20T13:01:06;101208.69;;;11.52;100.00
47104;BME280;32853;52.164;5.400;2023-12-20T13:03:32;101202.84;;;11.46;100.00
47104;BME280;32853;52.164;5.400;2023-12-20T13:05:57;101205.16;;;11.30;100.00
47104;BME280;32853;52.164;5.400;2023-12-20T13:08:24;101195.44;;;11.57;100.00
47104;BME280;32853;52.164;5.400;2023-12-20T13:11:05;101190.44;;;11.27;100.00
47104;BME280;32853;52.164;5.400;2023-12-20T13:13:48;101183.16;;;11.35;100.00
47104;BME280;32853;52.164;5.400;2023-12-20T13:16:16;101186.44;;;11.41;100.00
47104;BME280;32853;52.164;5.400;2023-12-20T13:18:43;101177.66;;;11.43;100.00
47104;BME280;32853;52.164;5.400;2023-12-20T13:21:11;101166.69;;;11.55;100.00
47104;BME280;32853;52.164;5.400;2023-12-20T13:23:38;101171.31;;;11.49;100.00
47104;BME280;32853;52.164;5.400;2023-12-20T13:26:12;101168.03;;;11.44;100.00